Time;durP1;ratioP1;P1;durP2;ratioP2;P2;SDS_P1;SDS_P2;PMS_P1;PMS_P2;Temp;Humidity;BMP_temperature;BMP_pressure;BME280_temperature;BME280_humidity;BME280_pressure;Samples;Min_cycle;Max_cycle;Signal;HPM_P1;HPM_P2
2023/04/30 00:00:44;;;;;;;17.13;13.73;;;10.80;99.90;;;;;;4982368;28;20215;-82
2023/04/30 00:03:09;;;;;;;17.57;13.20;;;10.80;99.90;;;;;;4976208;28;20280;-83
2023/04/30 00:05:36;;;;;;;15.47;12.90;;;10.70;99.90;;;;;;4980766;28;20478;-83
2023/04/30 00:08:01;;;;;;;15.70;13.73;;;10.70;99.90;;;;;;4980560;28;20180;-83
2023/04/30 00:10:27;;;;;;;20.10;14.53;;;10.60;99.90;;;;;;4979290;28;20536;-83
2023/04/30 00:12:52;;;;;;;14.90;13.30;;;10.60;99.90;;;;;;4984954;28;20197;-83
2023/04/30 00:15:18;;;;;;;16.00;13.07;;;10.60;99.90;;;;;;4979846;28;20630;-82
2023/04/30 00:17:43;;;;;;;16.33;12.77;;;10.50;99.90;;;;;;4980379;28;20188;-84
2023/04/30 00:20:09;;;;;;;21.60;13.17;;;10.50;99.90;;;;;;4984047;28;20208;-84
2023/04/30 00:22:35;;;;;;;17.40;12.27;;;10.50;1.00;;;;;;4990267;28;20916;-85
2023/04/30 00:25:00;;;;;;;15.07;12.00;;;10.50;1.00;;;;;;4987782;28;20550;-83
2023/04/30 00:27:26;;;;;;;18.47;13.07;;;10.40;99.90;;;;;;4990005;28;20188;-85
2023/04/30 00:29:51;;;;;;;20.50;11.50;;;10.40;99.90;;;;;;4989208;28;20180;-84
2023/04/30 00:32:17;;;;;;;14.90;12.10;;;10.40;99.90;;;;;;4988417;28;20188;-82
2023/04/30 00:34:42;;;;;;;16.83;12.03;;;10.30;99.90;;;;;;4988027;28;20271;-83
2023/04/30 00:37:08;;;;;;;16.20;12.03;;;10.30;99.90;;;;;;4987385;28;20189;-82
2023/04/30 00:39:33;;;;;;;15.20;11.40;;;10.30;99.90;;;;;;4979442;28;20208;-82
2023/04/30 00:41:59;;;;;;;15.20;10.77;;;10.30;99.90;;;;;;4987453;28;20760;-83
2023/04/30 00:44:25;;;;;;;17.03;12.57;;;10.20;1.00;;;;;;4991099;28;20208;-82
2023/04/30 00:46:50;;;;;;;18.93;12.90;;;10.20;99.90;;;;;;4986226;28;20440;-84
2023/04/30 00:49:16;;;;;;;16.70;12.07;;;10.20;99.90;;;;;;4984460;28;20192;-82
2023/04/30 00:51:42;;;;;;;18.70;12.97;;;10.10;99.90;;;;;;4983148;28;20185;-83
2023/04/30 00:54:08;;;;;;;16.53;12.30;;;10.10;99.90;;;;;;4984995;28;20211;-82
2023/04/30 00:56:34;;;;;;;17.03;12.80;;;10.00;99.90;;;;;;4986144;28;20508;-82
2023/04/30 00:59:00;;;;;;;16.57;12.00;;;9.90;99.90;;;;;;4987727;28;20192;-81
2023/04/30 01:01:29;;;;;;;14.43;12.17;;;9.90;99.90;;;;;;4987765;28;20659;-82
2023/04/30 01:03:55;;;;;;;15.00;12.20;;;9.90;1.00;;;;;;4986080;28;20215;-80
2023/04/30 01:06:20;;;;;;;20.03;11.97;;;9.90;1.00;;;;;;4974365;28;21119;-82
2023/04/30 01:08:47;;;;;;;15.80;12.03;;;9.80;1.00;;;;;;4984414;28;20207;-82
2023/04/30 01:11:16;;;;;;;16.73;12.80;;;9.80;1.00;;;;;;4986737;28;20192;-82
2023/04/30 01:14:24;;;;;;;17.50;11.77;;;9.80;1.00;;;;;;4987606;28;20458;-82
2023/04/30 01:17:07;;;;;;;16.97;12.03;;;9.70;1.00;;;;;;4989257;28;20508;-82
2023/04/30 01:19:44;;;;;;;18.30;11.77;;;9.70;1.00;;;;;;4982961;28;20482;-83
2023/04/30 01:22:49;;;;;;;15.80;11.07;;;9.70;1.00;;;;;;4972156;28;20428;-81
2023/04/30 01:25:52;;;;;;;15.60;11.03;;;9.70;1.00;;;;;;4980985;28;20491;-83
2023/04/30 01:28:19;;;;;;;18.90;10.90;;;9.70;1.00;;;;;;4974951;28;20440;-83
2023/04/30 01:30:45;;;;;;;15.37;11.20;;;9.70;1.00;;;;;;4981573;28;20440;-83
2023/04/30 01:33:11;;;;;;;19.07;13.30;;;9.70;1.00;;;;;;4971101;28;20463;-82
2023/04/30 01:36:09;;;;;;;14.10;10.77;;;9.70;1.00;;;;;;4979114;28;20471;-82
2023/04/30 01:39:03;;;;;;;18.50;11.77;;;9.70;1.00;;;;;;4984262;28;20471;-82
2023/04/30 01:42:09;;;;;;;17.55;13.60;;;9.60;1.00;;;;;;4988735;28;20180;-81
2023/04/30 01:45:04;;;;;;;16.50;11.10;;;9.60;1.00;;;;;;4963032;28;20218;-81
2023/04/30 01:47:44;;;;;;;14.23;11.00;;;9.50;1.00;;;;;;4976294;28;20435;-84
2023/04/30 01:50:23;;;;;;;17.53;11.57;;;9.50;1.00;;;;;;4970643;28;20192;-81
2023/04/30 01:52:58;;;;;;;20.33;12.02;;;9.40;1.00;;;;;;4975351;28;20442;-81
2023/04/30 01:55:40;;;;;;;26.33;14.50;;;9.40;35.40;;;;;;4975385;28;20554;-82
2023/04/30 01:58:09;;;;;;;17.80;12.75;;;9.40;99.90;;;;;;4981548;28;20196;-81
2023/04/30 02:00:35;;;;;;;18.30;12.10;;;9.40;99.90;;;;;;4984701;28;20212;-83
2023/04/30 02:03:01;;;;;;;21.63;11.80;;;9.40;99.90;;;;;;4980086;28;20222;-83
2023/04/30 02:05:26;;;;;;;17.37;12.53;;;9.30;99.90;;;;;;4983538;28;20230;-83
2023/04/30 02:07:52;;;;;;;15.70;12.10;;;9.20;99.90;;;;;;4982697;28;20184;-84
2023/04/30 02:10:21;;;;;;;30.30;13.25;;;9.20;99.90;;;;;;4983035;28;20184;-81
2023/04/30 02:12:47;;;;;;;22.67;13.53;;;9.20;99.90;;;;;;4976180;28;20195;-81
2023/04/30 02:15:13;;;;;;;19.67;13.13;;;9.10;99.90;;;;;;4977673;28;20463;-83
2023/04/30 02:17:38;;;;;;;19.57;13.07;;;9.10;1.00;;;;;;4977888;28;20188;-82
2023/04/30 02:20:05;;;;;;;18.50;13.17;;;9.10;1.00;;;;;;4975587;28;20314;-81
2023/04/30 02:22:30;;;;;;;18.98;11.63;;;9.10;1.00;;;;;;4979069;28;20184;-83
2023/04/30 02:24:56;;;;;;;24.80;14.53;;;9.10;1.00;;;;;;4982206;28;20212;-83
2023/04/30 02:27:23;;;;;;;16.27;12.30;;;9.10;1.00;;;;;;4981474;28;20183;-82
2023/04/30 02:29:49;;;;;;;18.38;13.40;;;9.10;1.00;;;;;;4980760;28;20195;-82
2023/04/30 02:32:14;;;;;;;17.13;12.53;;;9.10;1.00;;;;;;4973947;28;20185;-83
2023/04/30 02:34:40;;;;;;;24.20;13.00;;;9.00;1.00;;;;;;4978447;28;20214;-82
2023/04/30 02:37:06;;;;;;;19.50;12.90;;;9.00;59.40;;;;;;4977650;28;20207;-81
2023/04/30 02:39:32;;;;;;;21.77;14.60;;;9.00;92.40;;;;;;4974289;28;20243;-82
2023/04/30 02:41:58;;;;;;;16.27;12.20;;;8.90;99.90;;;;;;4973043;28;20185;-84
2023/04/30 02:44:24;;;;;;;21.13;15.17;;;8.90;99.90;;;;;;4972873;28;20250;-82
2023/04/30 02:46:49;;;;;;;16.57;12.43;;;8.90;99.90;;;;;;4981989;28;20443;-83
2023/04/30 02:49:15;;;;;;;20.13;13.33;;;8.90;99.90;;;;;;4982415;28;20443;-83
2023/04/30 02:51:41;;;;;;;21.60;14.67;;;8.80;99.90;;;;;;4984507;28;20280;-81
2023/04/30 02:54:06;;;;;;;20.60;12.80;;;8.80;99.90;;;;;;4979930;28;20242;-82
2023/04/30 02:56:32;;;;;;;18.07;13.57;;;8.80;99.90;;;;;;4984447;28;20180;-82
2023/04/30 02:58:58;;;;;;;21.93;14.30;;;8.70;99.90;;;;;;4984726;28;20208;-84
2023/04/30 03:01:23;;;;;;;16.97;12.43;;;8.60;99.90;;;;;;4978187;28;20188;-83
2023/04/30 03:03:49;;;;;;;20.73;13.30;;;8.60;1.00;;;;;;4977725;28;20192;-81
2023/04/30 03:06:14;;;;;;;24.27;13.70;;;8.60;1.00;;;;;;4984032;28;20172;-84
2023/04/30 03:08:40;;;;;;;17.97;14.07;;;8.60;1.00;;;;;;4985310;28;20173;-82
2023/04/30 03:11:05;;;;;;;22.60;14.30;;;8.60;1.00;;;;;;4977393;28;20180;-82
2023/04/30 03:13:31;;;;;;;24.47;13.43;;;8.60;1.00;;;;;;4986457;28;20206;-83
2023/04/30 03:16:00;;;;;;;19.80;13.47;;;8.60;1.00;;;;;;4987471;28;20219;-83
2023/04/30 03:18:27;;;;;;;20.33;14.43;;;8.50;1.00;;;;;;4983787;28;20390;-83
2023/04/30 03:20:52;;;;;;;21.10;14.35;;;8.50;1.00;;;;;;4985391;28;20272;-83
2023/04/30 03:23:18;;;;;;;20.30;14.10;;;8.50;22.80;;;;;;4982757;28;20188;-83
2023/04/30 03:25:43;;;;;;;19.43;13.57;;;8.40;98.50;;;;;;4983122;28;20208;-85
2023/04/30 03:28:09;;;;;;;21.20;14.03;;;8.30;99.90;;;;;;4978945;28;20203;-81
2023/04/30 03:30:34;;;;;;;24.20;16.00;;;8.30;99.90;;;;;;4985567;28;20273;-84
2023/04/30 03:33:00;;;;;;;22.33;15.00;;;8.20;1.00;;;;;;4983856;28;20208;-84
2023/04/30 03:35:26;;;;;;;21.70;16.20;;;8.10;1.00;;;;;;4981122;28;20243;-85
2023/04/30 03:37:51;;;;;;;20.50;15.03;;;8.10;1.00;;;;;;4996407;28;20192;-82
2023/04/30 03:40:17;;;;;;;17.87;13.70;;;8.10;1.00;;;;;;4977259;28;20212;-81
2023/04/30 03:42:42;;;;;;;26.33;15.53;;;8.10;27.60;;;;;;4976691;28;20181;-83
2023/04/30 03:45:08;;;;;;;20.80;14.57;;;8.10;84.50;;;;;;4984765;28;20204;-83
2023/04/30 03:47:35;;;;;;;26.80;15.80;;;8.10;78.30;;;;;;4980962;28;20236;-83
2023/04/30 03:50:02;;;;;;;19.23;13.32;;;8.20;23.10;;;;;;4984630;28;20191;-83
2023/04/30 03:52:28;;;;;;;22.52;13.85;;;8.20;1.00;;;;;;4977427;28;20187;-83
2023/04/30 03:54:53;;;;;;;23.23;14.83;;;8.20;1.00;;;;;;4979962;28;20223;-83
2023/04/30 03:57:19;;;;;;;24.33;15.00;;;8.20;1.00;;;;;;4986429;28;20193;-84
2023/04/30 03:59:45;;;;;;;17.60;13.23;;;8.20;1.00;;;;;;4981091;28;20204;-83
2023/04/30 04:02:10;;;;;;;21.87;15.03;;;8.20;1.00;;;;;;4989124;28;20185;-83
2023/04/30 04:04:36;;;;;;;20.77;15.27;;;8.20;99.90;;;;;;4986568;28;20481;-83
2023/04/30 04:07:06;;;;;;;19.00;14.40;;;8.20;99.90;;;;;;5002359;28;20181;-84
2023/04/30 04:09:32;;;;;;;17.70;13.80;;;8.10;1.00;;;;;;4982658;28;20181;-83
2023/04/30 04:11:57;;;;;;;19.10;14.37;;;8.20;1.00;;;;;;4987610;28;20717;-83
2023/04/30 04:14:23;;;;;;;21.40;13.60;;;8.20;1.00;;;;;;4989315;28;20200;-83
2023/04/30 04:16:48;;;;;;;23.67;15.17;;;8.20;1.00;;;;;;4988128;28;20184;-84
2023/04/30 04:19:14;;;;;;;18.97;14.40;;;8.30;1.00;;;;;;5008854;28;20197;-81
2023/04/30 04:21:41;;;;;;;17.80;13.43;;;8.30;1.00;;;;;;4981652;28;20189;-81
2023/04/30 04:24:07;;;;;;;25.58;14.50;;;8.30;99.90;;;;;;4982205;28;20215;-83
2023/04/30 04:26:36;;;;;;;22.80;13.50;;;8.30;99.90;;;;;;4983679;28;20180;-83
2023/04/30 04:29:03;;;;;;;20.27;14.88;;;8.30;99.90;;;;;;4981568;28;20653;-82
2023/04/30 04:31:30;;;;;;;20.90;14.48;;;8.30;99.90;;;;;;4969837;28;20188;-84
2023/04/30 04:33:59;;;;;;;18.25;14.75;;;8.40;99.90;;;;;;4983323;28;20210;-82
2023/04/30 04:36:27;;;;;;;21.25;14.73;;;8.40;99.90;;;;;;4972635;28;20254;-81
2023/04/30 04:38:54;;;;;;;21.63;14.13;;;8.50;76.50;;;;;;4980213;28;20188;-84
2023/04/30 04:41:20;;;;;;;20.77;14.55;;;8.50;1.00;;;;;;4983044;28;20176;-82
2023/04/30 04:43:46;;;;;;;24.80;14.75;;;8.60;1.00;;;;;;4985884;28;20184;-82
2023/04/30 04:46:11;;;;;;;21.77;13.87;;;8.60;1.00;;;;;;4983179;28;20176;-82
2023/04/30 04:48:37;;;;;;;19.17;14.33;;;8.60;1.00;;;;;;4977575;28;20176;-82
2023/04/30 04:51:02;;;;;;;18.90;13.97;;;8.70;99.90;;;;;;4977000;28;20189;-82
2023/04/30 04:53:28;;;;;;;20.27;14.40;;;8.80;99.90;;;;;;4997571;28;20196;-84
2023/04/30 04:55:54;;;;;;;21.00;14.80;;;8.90;99.90;;;;;;4974133;28;20702;-82
2023/04/30 04:58:19;;;;;;;24.03;15.87;;;9.00;99.90;;;;;;4983052;28;20184;-82
2023/04/30 05:00:45;;;;;;;19.87;15.13;;;9.00;99.90;;;;;;4997504;28;20220;-82
2023/04/30 05:03:11;;;;;;;22.40;15.17;;;9.10;69.90;;;;;;4982143;28;20196;-82
2023/04/30 05:05:36;;;;;;;26.07;15.17;;;9.20;1.00;;;;;;4981127;28;20214;-82
2023/04/30 05:08:02;;;;;;;22.13;15.10;;;9.30;1.00;;;;;;4982466;28;20520;-82
2023/04/30 05:10:27;;;;;;;18.43;14.10;;;9.40;1.00;;;;;;4982768;28;20195;-82
2023/04/30 05:12:53;;;;;;;20.40;14.60;;;9.50;1.00;;;;;;4979819;28;20186;-82
2023/04/30 05:15:18;;;;;;;19.73;13.30;;;9.60;99.90;;;;;;4980589;28;20200;-82
2023/04/30 05:17:44;;;;;;;23.00;14.73;;;9.70;99.90;;;;;;4971298;28;20204;-82
2023/04/30 05:20:11;;;;;;;20.83;14.63;;;9.80;99.90;;;;;;4972748;28;20265;-83
2023/04/30 05:22:37;;;;;;;23.50;14.67;;;10.00;99.90;;;;;;4989823;28;20184;-82
2023/04/30 05:25:03;;;;;;;17.90;13.73;;;10.50;99.90;;;;;;4971678;28;20554;-82
2023/04/30 05:27:28;;;;;;;17.10;12.70;;;12.10;99.90;;;;;;4979097;28;20207;-83
2023/04/30 05:29:54;;;;;;;17.90;12.27;;;15.70;1.00;;;;;;4976721;28;20459;-82
2023/04/30 05:32:21;;;;;;;19.50;11.97;;;18.90;99.90;;;;;;4976233;28;20188;-83
2023/04/30 05:34:47;;;;;;;15.17;12.73;;;21.60;99.90;;;;;;4967493;28;20213;-83
2023/04/30 05:37:13;;;;;;;15.20;10.63;;;24.10;99.90;;;;;;4965756;28;20680;-83
2023/04/30 05:39:38;;;;;;;11.90;10.50;;;26.30;99.90;;;;;;4970882;28;20204;-83
2023/04/30 05:42:04;;;;;;;14.23;10.17;;;28.10;99.90;;;;;;4974215;28;20463;-83
2023/04/30 05:44:30;;;;;;;11.57;9.57;;;29.50;99.90;;;;;;4971680;28;20284;-84
2023/04/30 05:46:56;;;;;;;11.57;9.67;;;30.80;99.90;;;;;;4970860;28;20436;-84
2023/04/30 05:49:21;;;;;;;13.27;10.87;;;32.00;99.90;;;;;;4976046;28;20434;-81
2023/04/30 05:51:47;;;;;;;12.83;11.10;;;33.20;99.90;;;;;;4985507;28;20858;-80
2023/04/30 05:54:12;;;;;;;11.67;10.57;;;33.90;99.90;;;;;;4982048;28;20208;-82
2023/04/30 05:56:37;;;;;;;11.33;10.30;;;34.80;99.90;;;;;;4998124;28;20196;-82
2023/04/30 05:59:03;;;;;;;11.20;10.10;;;35.90;99.90;;;;;;4986675;28;20215;-83
2023/04/30 06:01:29;;;;;;;13.20;11.80;;;37.40;99.90;;;;;;4986631;28;20250;-82
2023/04/30 06:03:54;;;;;;;12.07;11.07;;;39.10;99.90;;;;;;4982501;28;20200;-80
2023/04/30 06:06:20;;;;;;;11.50;10.40;;;40.40;99.90;;;;;;4984652;28;20563;-83
2023/04/30 06:08:45;;;;;;;11.00;9.90;;;41.60;99.90;;;;;;4985365;28;20192;-82
2023/04/30 06:11:14;;;;;;;10.97;10.13;;;42.70;99.90;;;;;;4986353;28;20184;-83
2023/04/30 06:13:40;;;;;;;11.53;10.23;;;43.80;99.90;;;;;;4987588;28;20240;-82
2023/04/30 06:16:07;;;;;;;11.97;10.87;;;44.60;99.90;;;;;;4976869;28;20474;-82
2023/04/30 06:18:32;;;;;;;11.30;10.30;;;45.20;99.90;;;;;;4972613;28;20773;-82
2023/04/30 06:20:58;;;;;;;10.03;9.13;;;45.90;99.90;;;;;;4983516;28;20474;-84
2023/04/30 06:23:23;;;;;;;10.40;9.60;;;46.40;99.90;;;;;;4979250;28;20186;-83
2023/04/30 06:25:49;;;;;;;10.23;9.50;;;46.80;99.90;;;;;;4978198;28;20784;-84
2023/04/30 06:28:15;;;;;;;10.17;9.40;;;47.00;99.90;;;;;;4979205;28;20190;-82
2023/04/30 06:30:40;;;;;;;10.80;9.90;;;47.60;99.90;;;;;;4991478;28;20591;-81
2023/04/30 06:33:06;;;;;;;10.40;9.60;;;48.20;99.90;;;;;;4979856;28;20235;-82
2023/04/30 06:35:31;;;;;;;10.77;9.60;;;48.90;99.90;;;;;;4977604;28;20600;-84
2023/04/30 06:37:57;;;;;;;10.33;9.53;;;49.50;99.90;;;;;;4980576;28;20183;-81
2023/04/30 06:40:23;;;;;;;10.67;9.60;;;50.30;99.90;;;;;;4972156;28;20185;-81
2023/04/30 06:42:48;;;;;;;10.30;9.50;;;50.90;99.90;;;;;;4968796;28;20184;-82
2023/04/30 06:45:14;;;;;;;11.47;9.47;;;51.00;99.90;;;;;;4974025;28;20253;-83
2023/04/30 06:47:41;;;;;;;10.73;9.82;;;51.30;99.90;;;;;;4975531;28;20187;-82
2023/04/30 06:50:07;;;;;;;10.73;9.80;;;51.40;99.90;;;;;;4973186;28;20219;-82
2023/04/30 06:52:33;;;;;;;9.45;8.75;;;51.30;99.90;;;;;;4971820;28;20267;-82
2023/04/30 06:54:59;;;;;;;10.48;9.68;;;51.50;99.90;;;;;;4973791;28;20278;-82
2023/04/30 06:57:26;;;;;;;11.07;10.18;;;52.10;99.90;;;;;;4964705;28;20263;-82
2023/04/30 06:59:52;;;;;;;10.93;10.02;;;52.40;99.40;;;;;;4972006;28;20199;-82
2023/04/30 07:02:17;;;;;;;10.63;9.73;;;52.80;99.00;;;;;;4964768;28;20275;-82
2023/04/30 07:04:43;;;;;;;9.73;9.02;;;52.90;97.40;;;;;;4975689;28;20629;-80
2023/04/30 07:07:09;;;;;;;9.32;8.52;;;52.90;96.50;;;;;;4974974;28;20239;-79
2023/04/30 07:09:35;;;;;;;10.95;10.05;;;53.10;95.50;;;;;;4978972;28;20192;-80
2023/04/30 07:12:00;;;;;;;9.82;9.07;;;52.90;93.50;;;;;;4975985;28;20183;-79
2023/04/30 07:14:26;;;;;;;10.13;9.30;;;52.80;92.70;;;;;;4976373;28;20253;-80
2023/04/30 07:16:52;;;;;;;10.82;10.02;;;53.00;92.70;;;;;;4974391;28;20282;-80
2023/04/30 07:19:18;;;;;;;10.63;9.82;;;53.20;91.30;;;;;;4969677;28;20211;-81
2023/04/30 07:21:43;;;;;;;10.10;9.20;;;53.30;91.20;;;;;;4974306;28;20168;-81
2023/04/30 07:24:09;;;;;;;10.38;9.55;;;53.70;91.20;;;;;;4973388;28;20207;-82
2023/04/30 07:26:35;;;;;;;10.88;10.05;;;53.40;89.00;;;;;;4973471;28;20187;-82
2023/04/30 07:29:01;;;;;;;11.25;10.30;;;52.60;83.70;;;;;;4977118;28;20195;-81
2023/04/30 07:31:26;;;;;;;10.63;9.70;;;52.50;82.60;;;;;;4976997;28;20191;-83
2023/04/30 07:33:54;;;;;;;10.90;10.02;;;52.60;82.70;;;;;;4980646;28;20230;-80
2023/04/30 07:36:19;;;;;;;10.75;9.85;;;52.60;81.90;;;;;;4972057;28;20189;-83
2023/04/30 07:38:45;;;;;;;10.90;10.10;;;52.70;81.00;;;;;;4982247;28;20194;-82
2023/04/30 07:41:10;;;;;;;11.47;10.57;;;52.40;78.50;;;;;;4979344;28;20681;-82
2023/04/30 07:43:36;;;;;;;11.40;10.37;;;52.40;78.10;;;;;;4981653;28;20325;-81
2023/04/30 07:46:02;;;;;;;11.23;10.37;;;52.10;76.50;;;;;;4984976;28;20609;-82
2023/04/30 07:48:28;;;;;;;10.47;9.57;;;51.60;73.80;;;;;;4981709;28;20210;-82
2023/04/30 07:50:54;;;;;;;10.70;10.00;;;51.60;72.60;;;;;;4981424;28;20195;-83
2023/04/30 07:53:19;;;;;;;10.70;9.90;;;51.60;90.70;;;;;;4977027;28;20179;-82
2023/04/30 07:55:45;;;;;;;9.83;9.13;;;51.40;72.20;;;;;;4978482;28;20689;-82
2023/04/30 07:58:10;;;;;;;9.83;9.10;;;51.60;72.90;;;;;;4978098;28;20187;-81
2023/04/30 08:00:36;;;;;;;11.37;10.37;;;51.30;70.30;;;;;;4974610;28;20866;-82
2023/04/30 08:03:02;;;;;;;11.10;10.20;;;50.30;66.60;;;;;;4971783;28;20184;-80
2023/04/30 08:05:27;;;;;;;11.77;10.83;;;49.90;65.60;;;;;;4972228;28;20211;-83
2023/04/30 08:07:53;;;;;;;12.50;11.40;;;50.20;67.30;;;;;;4968837;28;20200;-81
2023/04/30 08:10:18;;;;;;;10.10;9.23;;;50.60;68.80;;;;;;4973308;28;20184;-82
2023/04/30 08:12:44;;;;;;;10.80;10.00;;;50.50;68.20;;;;;;4970613;28;20247;-83
2023/04/30 08:15:09;;;;;;;10.70;9.90;;;50.80;68.00;;;;;;4970954;28;20211;-82
2023/04/30 08:17:35;;;;;;;11.03;10.10;;;50.70;67.90;;;;;;4973717;28;20188;-82
2023/04/30 08:20:03;;;;;;;10.60;9.50;;;50.40;65.80;;;;;;4980064;28;20223;-81
2023/04/30 08:22:29;;;;;;;11.60;10.50;;;50.50;65.40;;;;;;4976689;28;20184;-82
2023/04/30 08:24:54;;;;;;;10.80;10.00;;;50.90;66.10;;;;;;4978495;28;20485;-82
2023/04/30 08:27:20;;;;;;;11.27;10.27;;;50.80;65.20;;;;;;4968353;28;20186;-81
2023/04/30 08:29:46;;;;;;;10.10;9.20;;;50.90;64.90;;;;;;4971518;28;20202;-83
2023/04/30 08:32:12;;;;;;;10.60;9.83;;;51.10;66.10;;;;;;4977645;28;20526;-81
2023/04/30 08:34:39;;;;;;;10.10;9.40;;;50.40;63.30;;;;;;4978780;28;20233;-81
2023/04/30 08:37:05;;;;;;;10.83;9.93;;;50.30;62.50;;;;;;4977232;28;20235;-81
2023/04/30 08:39:31;;;;;;;12.07;11.07;;;50.10;61.20;;;;;;4980971;28;20497;-82
2023/04/30 08:42:01;;;;;;;11.87;10.87;;;49.80;61.50;;;;;;4974720;28;20435;-81
2023/04/30 08:44:27;;;;;;;10.47;9.57;;;49.60;60.10;;;;;;4978654;28;20276;-81
2023/04/30 08:46:54;;;;;;;10.07;9.17;;;49.50;60.10;;;;;;4978383;28;20427;-82
2023/04/30 08:49:24;;;;;;;11.07;9.50;;;49.50;60.10;;;;;;4978984;28;20450;-81
2023/04/30 08:51:50;;;;;;;10.37;9.17;;;49.50;60.00;;;;;;4978496;28;20788;-81
2023/04/30 08:54:17;;;;;;;12.07;9.40;;;49.60;60.30;;;;;;4974243;28;20558;-82
2023/04/30 08:56:44;;;;;;;9.53;8.73;;;49.50;60.20;;;;;;4976920;28;20893;-81
2023/04/30 08:59:11;;;;;;;9.20;8.30;;;49.70;59.50;;;;;;4973611;28;20467;-81
2023/04/30 09:01:36;;;;;;;9.70;9.00;;;49.80;59.10;;;;;;4975788;28;20422;-81
2023/04/30 09:04:03;;;;;;;10.73;9.63;;;49.10;57.50;;;;;;4970750;28;20847;-80
2023/04/30 09:06:28;;;;;;;10.70;8.90;;;48.90;56.70;;;;;;4962634;28;20262;-81
2023/04/30 09:08:54;;;;;;;10.33;9.40;;;47.90;54.50;;;;;;4968270;28;20527;-81
2023/04/30 09:11:28;;;;;;;11.00;9.97;;;47.20;52.90;;;;;;4987364;28;20296;-80
2023/04/30 09:13:56;;;;;;;11.00;10.00;;;47.20;53.30;;;;;;4972837;28;20187;-79
2023/04/30 09:16:22;;;;;;;8.57;7.83;;;46.80;52.30;;;;;;4968351;28;20420;-80
2023/04/30 09:18:48;;;;;;;9.90;9.10;;;46.00;49.70;;;;;;4976955;28;20813;-80
2023/04/30 09:21:13;;;;;;;11.03;8.90;;;46.00;50.90;;;;;;4974215;28;20432;-78
2023/04/30 09:23:56;;;;;;;8.93;8.23;;;45.70;50.70;;;;;;4971691;28;20192;-80
2023/04/30 09:26:33;;;;;;;9.60;8.73;;;45.30;49.40;;;;;;4969868;28;20192;-79
2023/04/30 09:28:59;;;;;;;8.77;7.87;;;44.30;48.70;;;;;;4967622;28;20446;-78
2023/04/30 09:31:26;;;;;;;8.90;8.10;;;43.10;44.80;;;;;;4967960;28;20438;-80
2023/04/30 09:33:52;;;;;;;9.60;8.67;;;42.50;44.40;;;;;;4972021;28;20427;-80
2023/04/30 09:36:18;;;;;;;9.97;7.50;;;41.30;42.10;;;;;;4971402;28;20502;-80
2023/04/30 09:38:44;;;;;;;7.20;6.50;;;41.30;43.70;;;;;;4965304;28;20535;-79
2023/04/30 09:41:27;;;;;;;8.07;6.60;;;41.10;45.10;;;;;;4962175;28;21941;-80
2023/04/30 09:43:54;;;;;;;6.07;5.47;;;41.40;45.40;;;;;;4971362;28;20622;-80
2023/04/30 09:46:21;;;;;;;6.33;5.73;;;41.50;46.20;;;;;;4967713;28;20525;-80
2023/04/30 09:48:56;;;;;;;5.80;5.00;;;41.20;44.90;;;;;;4972949;28;20420;-81
2023/04/30 09:51:22;;;;;;;6.67;4.90;;;40.70;43.50;;;;;;4985650;28;20447;-80
2023/04/30 09:53:49;;;;;;;6.50;5.40;;;40.80;44.30;;;;;;4969648;28;20443;-82
2023/04/30 09:56:20;;;;;;;5.97;5.37;;;41.00;45.80;;;;;;4972809;28;20188;-81
2023/04/30 09:58:52;;;;;;;3.50;3.17;;;41.30;48.00;;;;;;4970667;28;20440;-82
2023/04/30 10:01:19;;;;;;;5.80;5.30;;;41.70;48.20;;;;;;4961187;28;21082;-82
2023/04/30 10:03:47;;;;;;;5.53;5.03;;;40.70;44.30;;;;;;4969406;28;20459;-82
2023/04/30 10:06:14;;;;;;;6.47;5.83;;;40.60;45.00;;;;;;4972600;28;20792;-82
2023/04/30 10:08:42;;;;;;;5.50;5.10;;;39.90;42.70;;;;;;4969435;28;20451;-81
2023/04/30 10:11:11;;;;;;;4.10;3.77;;;39.80;43.60;;;;;;4973526;28;20452;-81
2023/04/30 10:13:37;;;;;;;3.77;3.47;;;40.30;45.20;;;;;;4971283;28;20478;-81
2023/04/30 10:16:10;;;;;;;4.63;4.30;;;40.60;46.50;;;;;;4973353;28;20961;-81
2023/04/30 10:18:38;;;;;;;4.67;3.93;;;40.40;45.50;;;;;;4967272;28;20293;-82
2023/04/30 10:21:11;;;;;;;4.10;3.80;;;40.40;46.30;;;;;;4969665;28;20570;-82
2023/04/30 10:23:38;;;;;;;5.67;4.53;;;40.40;46.60;;;;;;4967343;28;21251;-82
2023/04/30 10:26:04;;;;;;;5.27;4.50;;;40.20;45.60;;;;;;4972647;28;20483;-83
2023/04/30 10:28:31;;;;;;;4.57;4.17;;;40.10;44.90;;;;;;4969991;28;21012;-81
2023/04/30 10:30:57;;;;;;;5.20;4.80;;;39.50;43.80;;;;;;4972709;28;20191;-81
2023/04/30 10:34:01;;;;;;;5.07;4.67;;;39.90;45.10;;;;;;4973451;28;20482;-81
2023/04/30 10:36:43;;;;;;;5.53;5.03;;;40.50;47.50;;;;;;4974688;28;20450;-83
2023/04/30 10:39:13;;;;;;;4.93;4.53;;;41.00;48.80;;;;;;4973957;28;21391;-81
2023/04/30 10:41:39;;;;;;;5.07;4.40;;;40.70;47.90;;;;;;4975906;28;20440;-87
2023/04/30 10:44:06;;;;;;;5.73;4.60;;;40.70;48.90;;;;;;4984258;28;20461;-81
2023/04/30 10:46:35;;;;;;;4.40;4.00;;;40.90;48.80;;;;;;4977500;28;20447;-81
2023/04/30 10:49:01;;;;;;;7.50;5.10;;;41.10;49.30;;;;;;4969749;28;20942;-84
2023/04/30 10:51:45;;;;;;;4.73;4.30;;;41.30;50.60;;;;;;4977451;28;20505;-81
2023/04/30 10:54:14;;;;;;;5.10;4.70;;;40.20;46.60;;;;;;4978718;28;20208;-81
2023/04/30 10:56:40;;;;;;;5.50;5.00;;;39.20;43.50;;;;;;4973784;28;20814;-82
2023/04/30 10:59:06;;;;;;;5.17;4.67;;;38.50;42.60;;;;;;4978601;28;20458;-81
2023/04/30 11:01:59;;;;;;;4.77;4.27;;;38.50;43.30;;;;;;4974201;28;20193;-81
2023/04/30 11:04:25;;;;;;;5.53;5.03;;;38.80;45.50;;;;;;4979140;28;20479;-81
2023/04/30 11:06:53;;;;;;;8.10;4.60;;;38.90;46.90;;;;;;4972098;28;20874;-82
2023/04/30 11:09:41;;;;;;;5.53;4.90;;;39.20;47.70;;;;;;4979923;28;20447;-82
2023/04/30 11:12:18;;;;;;;5.77;5.27;;;39.50;48.50;;;;;;4978717;28;20443;-80
2023/04/30 11:14:45;;;;;;;5.37;4.37;;;38.50;45.30;;;;;;4995951;28;20467;-82
2023/04/30 11:17:12;;;;;;;5.13;4.60;;;37.20;42.20;;;;;;4977790;28;20451;-80
2023/04/30 11:19:49;;;;;;;4.13;3.80;;;36.60;42.00;;;;;;4983551;28;20463;-81
2023/04/30 11:22:16;;;;;;;4.83;4.33;;;37.40;44.70;;;;;;4997825;28;20438;-82
2023/04/30 11:25:04;;;;;;;4.40;4.00;;;38.20;47.80;;;;;;4983531;28;20493;-81
2023/04/30 11:27:34;;;;;;;5.80;5.20;;;38.50;49.70;;;;;;4984480;28;20860;-83
2023/04/30 11:30:01;;;;;;;5.60;4.97;;;37.00;45.30;;;;;;4984217;28;20443;-84
2023/04/30 11:32:33;;;;;;;5.37;4.87;;;35.30;41.30;;;;;;4989339;28;20427;-82
2023/04/30 11:35:03;;;;;;;4.90;4.10;;;34.10;39.10;;;;;;4980555;28;20462;-81
2023/04/30 11:37:40;;;;;;;5.00;4.50;;;33.70;29.60;;;;;;4988566;28;20428;-83
2023/04/30 11:40:09;;;;;;;5.00;4.60;;;34.60;43.90;;;;;;4990295;28;20955;-81
2023/04/30 11:42:38;;;;;;;4.57;4.17;;;35.40;46.20;;;;;;4987211;28;20707;-82
2023/04/30 11:45:11;;;;;;;5.23;3.90;;;35.10;45.50;;;;;;4986394;28;20443;-82
2023/04/30 11:47:48;;;;;;;4.30;3.90;;;35.10;45.70;;;;;;4983590;28;20455;-81
2023/04/30 11:50:27;;;;;;;4.80;4.00;;;34.30;43.70;;;;;;5003696;28;20510;-82
2023/04/30 11:52:56;;;;;;;4.57;4.20;;;33.00;40.20;;;;;;4977187;28;20454;-80
2023/04/30 11:55:24;;;;;;;5.30;4.60;;;31.90;38.80;;;;;;4988495;28;20466;-80
2023/04/30 11:57:55;;;;;;;4.17;3.80;;;31.80;39.70;;;;;;4980565;28;20437;-80
2023/04/30 12:00:26;;;;;;;4.30;3.90;;;32.60;43.50;;;;;;4976845;28;20478;-81
2023/04/30 12:02:53;;;;;;;3.97;3.67;;;33.80;47.90;;;;;;4986076;28;20472;-84
2023/04/30 12:05:20;;;;;;;5.27;3.80;;;34.90;51.10;;;;;;4984073;28;20469;-82
2023/04/30 12:07:53;;;;;;;3.60;3.30;;;35.00;50.30;;;;;;4990111;28;20439;-83
2023/04/30 12:10:19;;;;;;;3.40;3.10;;;34.20;48.30;;;;;;4986739;28;20442;-82
2023/04/30 12:12:47;;;;;;;4.57;3.50;;;33.70;46.90;;;;;;4986623;28;20447;-82
2023/04/30 12:15:26;;;;;;;3.03;2.73;;;34.30;48.80;;;;;;4980144;28;20460;-82
2023/04/30 12:17:57;;;;;;;3.17;2.87;;;34.50;50.40;;;;;;4978721;28;20439;-81
2023/04/30 12:20:28;;;;;;;4.43;3.90;;;34.90;52.10;;;;;;4976566;28;20849;-81
2023/04/30 12:22:53;;;;;;;4.50;3.47;;;35.70;54.00;;;;;;4978324;28;20475;-81
2023/04/30 12:25:21;;;;;;;3.43;3.13;;;36.20;55.70;;;;;;4976086;28;20456;-80
2023/04/30 12:27:51;;;;;;;3.53;3.13;;;36.50;55.70;;;;;;4981388;28;20252;-81
2023/04/30 12:30:23;;;;;;;2.77;2.57;;;36.90;56.30;;;;;;4980593;28;20463;-81
2023/04/30 12:32:51;;;;;;;3.40;3.10;;;36.40;54.30;;;;;;4978073;28;20435;-80
2023/04/30 12:35:19;;;;;;;3.47;2.70;;;35.70;53.20;;;;;;4977967;28;20463;-83
2023/04/30 12:37:51;;;;;;;3.80;2.87;;;35.20;51.80;;;;;;4980709;28;20491;-82
2023/04/30 12:40:21;;;;;;;6.07;3.00;;;35.20;52.50;;;;;;4977382;28;20525;-80
2023/04/30 12:42:47;;;;;;;6.00;2.70;;;35.30;52.90;;;;;;4974281;28;20485;-81
2023/04/30 12:45:33;;;;;;;3.63;3.33;;;35.60;53.80;;;;;;4979379;28;20523;-80